sensor_id;sensor_type;location;lat;lon;timestamp;temperature;humidity
43009;DHT22;28634;45.454;11.106;2022-09-21T00:01:21;27.20;38.50
43009;DHT22;28634;45.454;11.106;2022-09-21T00:03:55;27.20;38.60
43009;DHT22;28634;45.454;11.106;2022-09-21T00:06:24;27.20;38.60
43009;DHT22;28634;45.454;11.106;2022-09-21T00:08:52;27.20;38.60
43009;DHT22;28634;45.454;11.106;2022-09-21T00:11:26;27.30;38.80
43009;DHT22;28634;45.454;11.106;2022-09-21T00:13:56;27.20;38.70
43009;DHT22;28634;45.454;11.106;2022-09-21T00:16:26;27.20;38.60
43009;DHT22;28634;45.454;11.106;2022-09-21T00:18:54;27.20;38.70
43009;DHT22;28634;45.454;11.106;2022-09-21T00:21:21;27.20;38.60
43009;DHT22;28634;45.454;11.106;2022-09-21T00:23:49;27.20;38.60
43009;DHT22;28634;45.454;11.106;2022-09-21T00:26:20;27.20;38.60
43009;DHT22;28634;45.454;11.106;2022-09-21T00:28:55;27.20;38.60
43009;DHT22;28634;45.454;11.106;2022-09-21T00:31:23;27.20;38.70
43009;DHT22;28634;45.454;11.106;2022-09-21T00:33:51;27.20;38.70
43009;DHT22;28634;45.454;11.106;2022-09-21T00:36:20;27.30;38.70
43009;DHT22;28634;45.454;11.106;2022-09-21T00:38:53;27.20;38.70
43009;DHT22;28634;45.454;11.106;2022-09-21T00:41:28;27.20;38.80
43009;DHT22;28634;45.454;11.106;2022-09-21T00:46:45;27.20;38.80
43009;DHT22;28634;45.454;11.106;2022-09-21T00:49:15;27.20;38.70
43009;DHT22;28634;45.454;11.106;2022-09-21T00:51:44;27.20;38.70
43009;DHT22;28634;45.454;11.106;2022-09-21T00:54:16;27.20;38.80
43009;DHT22;28634;45.454;11.106;2022-09-21T00:56:45;27.30;38.90
43009;DHT22;28634;45.454;11.106;2022-09-21T00:59:15;27.20;38.90
43009;DHT22;28634;45.454;11.106;2022-09-21T01:01:47;27.20;38.90
43009;DHT22;28634;45.454;11.106;2022-09-21T01:04:14;27.30;39.00
43009;DHT22;28634;45.454;11.106;2022-09-21T01:06:45;27.20;39.00
43009;DHT22;28634;45.454;11.106;2022-09-21T01:09:14;27.20;39.10
43009;DHT22;28634;45.454;11.106;2022-09-21T01:14:56;27.20;39.10
43009;DHT22;28634;45.454;11.106;2022-09-21T01:17:43;27.20;39.10
43009;DHT22;28634;45.454;11.106;2022-09-21T01:30:59;27.20;39.00
43009;DHT22;28634;45.454;11.106;2022-09-21T01:33:33;27.20;39.00
43009;DHT22;28634;45.454;11.106;2022-09-21T01:36:08;27.20;38.90
43009;DHT22;28634;45.454;11.106;2022-09-21T01:38:46;27.20;38.80
43009;DHT22;28634;45.454;11.106;2022-09-21T01:41:18;27.20;38.70
43009;DHT22;28634;45.454;11.106;2022-09-21T01:43:50;27.10;38.70
43009;DHT22;28634;45.454;11.106;2022-09-21T01:46:20;27.10;38.80
43009;DHT22;28634;45.454;11.106;2022-09-21T01:48:52;27.20;38.60
43009;DHT22;28634;45.454;11.106;2022-09-21T01:51:21;27.20;38.60
43009;DHT22;28634;45.454;11.106;2022-09-21T01:53:55;27.10;38.70
43009;DHT22;28634;45.454;11.106;2022-09-21T01:56:27;27.10;38.60
43009;DHT22;28634;45.454;11.106;2022-09-21T01:59:05;27.20;38.50
43009;DHT22;28634;45.454;11.106;2022-09-21T02:01:37;27.20;38.40
43009;DHT22;28634;45.454;11.106;2022-09-21T02:04:11;27.10;38.30
43009;DHT22;28634;45.454;11.106;2022-09-21T02:06:42;27.10;38.30
43009;DHT22;28634;45.454;11.106;2022-09-21T02:09:11;27.10;38.30
43009;DHT22;28634;45.454;11.106;2022-09-21T02:11:38;27.10;38.10
43009;DHT22;28634;45.454;11.106;2022-09-21T02:14:13;27.10;38.20
43009;DHT22;28634;45.454;11.106;2022-09-21T02:17:11;27.10;38.20
43009;DHT22;28634;45.454;11.106;2022-09-21T02:22:40;27.10;38.10
43009;DHT22;28634;45.454;11.106;2022-09-21T02:25:14;27.10;38.10
43009;DHT22;28634;45.454;11.106;2022-09-21T02:27:52;27.10;38.20
43009;DHT22;28634;45.454;11.106;2022-09-21T02:30:22;27.10;38.20
43009;DHT22;28634;45.454;11.106;2022-09-21T02:36:25;27.10;38.30
43009;DHT22;28634;45.454;11.106;2022-09-21T02:38:39;27.10;38.30
43009;DHT22;28634;45.454;11.106;2022-09-21T02:41:15;27.00;38.40
43009;DHT22;28634;45.454;11.106;2022-09-21T02:43:48;27.00;38.50
43009;DHT22;28634;45.454;11.106;2022-09-21T02:46:24;27.00;38.50
43009;DHT22;28634;45.454;11.106;2022-09-21T02:48:59;27.00;38.70
43009;DHT22;28634;45.454;11.106;2022-09-21T02:51:32;27.00;38.60
43009;DHT22;28634;45.454;11.106;2022-09-21T02:54:03;27.00;38.70
43009;DHT22;28634;45.454;11.106;2022-09-21T02:56:32;27.00;38.80
43009;DHT22;28634;45.454;11.106;2022-09-21T02:59:03;27.00;38.70
43009;DHT22;28634;45.454;11.106;2022-09-21T03:01:32;27.00;38.80
43009;DHT22;28634;45.454;11.106;2022-09-21T03:04:00;27.00;38.90
43009;DHT22;28634;45.454;11.106;2022-09-21T03:06:27;27.00;38.90
43009;DHT22;28634;45.454;11.106;2022-09-21T03:08:54;27.00;38.90
43009;DHT22;28634;45.454;11.106;2022-09-21T03:11:25;26.90;38.90
43009;DHT22;28634;45.454;11.106;2022-09-21T03:13:52;27.00;38.80
43009;DHT22;28634;45.454;11.106;2022-09-21T03:16:20;27.00;38.90
43009;DHT22;28634;45.454;11.106;2022-09-21T03:18:48;27.00;38.90
43009;DHT22;28634;45.454;11.106;2022-09-21T03:21:15;26.90;38.90
43009;DHT22;28634;45.454;11.106;2022-09-21T03:23:42;26.90;38.90
43009;DHT22;28634;45.454;11.106;2022-09-21T03:26:09;26.90;38.90
43009;DHT22;28634;45.454;11.106;2022-09-21T03:28:36;26.90;38.80
43009;DHT22;28634;45.454;11.106;2022-09-21T03:31:06;26.90;38.80
43009;DHT22;28634;45.454;11.106;2022-09-21T03:33:35;26.90;38.80
43009;DHT22;28634;45.454;11.106;2022-09-21T03:36:02;26.90;38.70
43009;DHT22;28634;45.454;11.106;2022-09-21T03:38:29;26.90;38.70
43009;DHT22;28634;45.454;11.106;2022-09-21T03:40:57;26.90;38.60
43009;DHT22;28634;45.454;11.106;2022-09-21T03:43:24;26.90;38.60
43009;DHT22;28634;45.454;11.106;2022-09-21T03:45:51;26.90;38.60
43009;DHT22;28634;45.454;11.106;2022-09-21T03:48:19;26.80;38.60
43009;DHT22;28634;45.454;11.106;2022-09-21T03:50:47;26.90;38.50
43009;DHT22;28634;45.454;11.106;2022-09-21T03:53:17;26.80;38.50
43009;DHT22;28634;45.454;11.106;2022-09-21T03:55:44;26.80;38.40
43009;DHT22;28634;45.454;11.106;2022-09-21T03:58:11;26.80;38.40
43009;DHT22;28634;45.454;11.106;2022-09-21T04:00:38;26.80;38.40
43009;DHT22;28634;45.454;11.106;2022-09-21T04:03:05;26.80;38.40
43009;DHT22;28634;45.454;11.106;2022-09-21T04:05:32;26.80;38.40
43009;DHT22;28634;45.454;11.106;2022-09-21T04:07:59;26.80;38.40
43009;DHT22;28634;45.454;11.106;2022-09-21T04:10:28;26.80;38.30
43009;DHT22;28634;45.454;11.106;2022-09-21T04:13:02;26.80;38.40
43009;DHT22;28634;45.454;11.106;2022-09-21T04:15:30;26.80;38.40
43009;DHT22;28634;45.454;11.106;2022-09-21T04:17:57;26.80;38.40
43009;DHT22;28634;45.454;11.106;2022-09-21T04:20:25;26.80;38.40
43009;DHT22;28634;45.454;11.106;2022-09-21T04:22:52;26.70;38.50
43009;DHT22;28634;45.454;11.106;2022-09-21T04:25:19;26.70;38.50
43009;DHT22;28634;45.454;11.106;2022-09-21T04:27:51;26.70;38.60
43009;DHT22;28634;45.454;11.106;2022-09-21T04:30:18;26.60;38.50
43009;DHT22;28634;45.454;11.106;2022-09-21T04:32:50;26.60;38.50
43009;DHT22;28634;45.454;11.106;2022-09-21T04:35:17;26.60;38.40
43009;DHT22;28634;45.454;11.106;2022-09-21T04:37:44;26.50;38.60
43009;DHT22;28634;45.454;11.106;2022-09-21T04:40:20;26.60;38.50
43009;DHT22;28634;45.454;11.106;2022-09-21T04:42:52;26.50;38.50
43009;DHT22;28634;45.454;11.106;2022-09-21T04:45:20;26.50;38.50
43009;DHT22;28634;45.454;11.106;2022-09-21T04:47:47;26.50;38.50
43009;DHT22;28634;45.454;11.106;2022-09-21T04:50:15;26.50;38.50
43009;DHT22;28634;45.454;11.106;2022-09-21T04:52:42;26.40;38.50
43009;DHT22;28634;45.454;11.106;2022-09-21T04:55:09;26.40;38.40
43009;DHT22;28634;45.454;11.106;2022-09-21T04:57:36;26.40;38.30
43009;DHT22;28634;45.454;11.106;2022-09-21T05:00:04;26.40;38.20
43009;DHT22;28634;45.454;11.106;2022-09-21T05:02:35;26.40;38.30
43009;DHT22;28634;45.454;11.106;2022-09-21T05:05:02;26.40;38.20
43009;DHT22;28634;45.454;11.106;2022-09-21T05:07:29;26.30;38.20
43009;DHT22;28634;45.454;11.106;2022-09-21T05:09:56;26.30;38.10
43009;DHT22;28634;45.454;11.106;2022-09-21T05:12:33;26.40;38.20
43009;DHT22;28634;45.454;11.106;2022-09-21T05:15:07;26.30;38.30
43009;DHT22;28634;45.454;11.106;2022-09-21T05:17:34;26.30;38.10
43009;DHT22;28634;45.454;11.106;2022-09-21T05:20:01;26.40;38.00
43009;DHT22;28634;45.454;11.106;2022-09-21T05:22:28;26.30;38.00
43009;DHT22;28634;45.454;11.106;2022-09-21T05:24:56;26.30;37.90
43009;DHT22;28634;45.454;11.106;2022-09-21T05:27:23;26.30;37.90
43009;DHT22;28634;45.454;11.106;2022-09-21T05:29:50;26.30;37.90
43009;DHT22;28634;45.454;11.106;2022-09-21T08:30:33;26.10;36.80
43009;DHT22;28634;45.454;11.106;2022-09-21T08:33:00;26.20;36.80
43009;DHT22;28634;45.454;11.106;2022-09-21T08:35:27;26.10;37.10
43009;DHT22;28634;45.454;11.106;2022-09-21T08:37:56;26.10;37.00
43009;DHT22;28634;45.454;11.106;2022-09-21T08:40:23;26.20;36.70
43009;DHT22;28634;45.454;11.106;2022-09-21T08:43:09;26.20;36.60
43009;DHT22;28634;45.454;11.106;2022-09-21T08:45:41;26.10;36.10
43009;DHT22;28634;45.454;11.106;2022-09-21T08:48:13;26.10;36.30
43009;DHT22;28634;45.454;11.106;2022-09-21T08:50:52;26.20;37.10
43009;DHT22;28634;45.454;11.106;2022-09-21T08:53:38;26.20;37.30
43009;DHT22;28634;45.454;11.106;2022-09-21T08:56:11;26.10;37.30
43009;DHT22;28634;45.454;11.106;2022-09-21T08:58:39;26.20;37.40
43009;DHT22;28634;45.454;11.106;2022-09-21T09:01:46;26.20;37.50
43009;DHT22;28634;45.454;11.106;2022-09-21T09:04:27;26.20;37.40
43009;DHT22;28634;45.454;11.106;2022-09-21T09:23:19;26.20;36.90
43009;DHT22;28634;45.454;11.106;2022-09-21T09:25:50;26.10;35.50
43009;DHT22;28634;45.454;11.106;2022-09-21T09:28:44;26.20;34.50
43009;DHT22;28634;45.454;11.106;2022-09-21T09:35:59;26.20;34.40
43009;DHT22;28634;45.454;11.106;2022-09-21T09:38:39;26.10;34.20
43009;DHT22;28634;45.454;11.106;2022-09-21T09:44:37;26.00;33.30
43009;DHT22;28634;45.454;11.106;2022-09-21T09:52:51;26.10;36.20
43009;DHT22;28634;45.454;11.106;2022-09-21T09:55:33;26.10;37.00
43009;DHT22;28634;45.454;11.106;2022-09-21T09:58:03;26.20;37.30
43009;DHT22;28634;45.454;11.106;2022-09-21T10:00:30;26.10;34.60
43009;DHT22;28634;45.454;11.106;2022-09-21T10:02:57;26.20;35.30
43009;DHT22;28634;45.454;11.106;2022-09-21T10:07:54;26.20;37.40
43009;DHT22;28634;45.454;11.106;2022-09-21T10:10:36;26.20;37.30
43009;DHT22;28634;45.454;11.106;2022-09-21T10:13:26;26.20;33.70
43009;DHT22;28634;45.454;11.106;2022-09-21T10:15:57;26.20;36.60
43009;DHT22;28634;45.454;11.106;2022-09-21T10:21:23;26.20;33.20
43009;DHT22;28634;45.454;11.106;2022-09-21T10:23:57;26.20;35.90
43009;DHT22;28634;45.454;11.106;2022-09-21T10:26:31;26.20;33.30
43009;DHT22;28634;45.454;11.106;2022-09-21T10:34:27;26.20;33.50
43009;DHT22;28634;45.454;11.106;2022-09-21T10:36:58;26.30;33.70
43009;DHT22;28634;45.454;11.106;2022-09-21T10:39:28;26.30;35.00
43009;DHT22;28634;45.454;11.106;2022-09-21T10:42:05;26.30;34.50
43009;DHT22;28634;45.454;11.106;2022-09-21T10:44:45;26.30;33.60
43009;DHT22;28634;45.454;11.106;2022-09-21T10:47:20;26.30;32.80
43009;DHT22;28634;45.454;11.106;2022-09-21T10:49:54;26.30;32.60
43009;DHT22;28634;45.454;11.106;2022-09-21T10:52:33;26.30;31.40
43009;DHT22;28634;45.454;11.106;2022-09-21T10:55:01;26.30;32.00
43009;DHT22;28634;45.454;11.106;2022-09-21T10:57:28;26.40;34.40
43009;DHT22;28634;45.454;11.106;2022-09-21T10:59:56;26.40;34.30
43009;DHT22;28634;45.454;11.106;2022-09-21T11:05:25;26.30;34.90
43009;DHT22;28634;45.454;11.106;2022-09-21T11:08:09;26.30;36.40
43009;DHT22;28634;45.454;11.106;2022-09-21T11:13:49;26.30;35.50
43009;DHT22;28634;45.454;11.106;2022-09-21T11:16:44;26.30;36.30
43009;DHT22;28634;45.454;11.106;2022-09-21T11:19:37;26.30;35.30
43009;DHT22;28634;45.454;11.106;2022-09-21T11:22:10;26.30;37.20
43009;DHT22;28634;45.454;11.106;2022-09-21T11:27:28;26.30;36.10
43009;DHT22;28634;45.454;11.106;2022-09-21T11:30:01;26.30;37.10
43009;DHT22;28634;45.454;11.106;2022-09-21T11:32:55;26.30;37.60
43009;DHT22;28634;45.454;11.106;2022-09-21T11:36:06;26.20;38.20
43009;DHT22;28634;45.454;11.106;2022-09-21T11:41:19;26.20;38.30
43009;DHT22;28634;45.454;11.106;2022-09-21T11:53:30;26.10;38.40
43009;DHT22;28634;45.454;11.106;2022-09-21T12:06:58;26.00;38.20
43009;DHT22;28634;45.454;11.106;2022-09-21T12:12:35;26.00;38.40
43009;DHT22;28634;45.454;11.106;2022-09-21T12:15:25;26.00;38.50
43009;DHT22;28634;45.454;11.106;2022-09-21T12:18:44;26.10;38.50
43009;DHT22;28634;45.454;11.106;2022-09-21T12:20:58;26.00;38.20
43009;DHT22;28634;45.454;11.106;2022-09-21T12:23:52;26.10;37.30
43009;DHT22;28634;45.454;11.106;2022-09-21T12:26:27;26.10;36.40
43009;DHT22;28634;45.454;11.106;2022-09-21T12:29:00;26.10;38.00
43009;DHT22;28634;45.454;11.106;2022-09-21T12:34:26;26.00;38.10
43009;DHT22;28634;45.454;11.106;2022-09-21T12:37:08;26.00;37.40
43009;DHT22;28634;45.454;11.106;2022-09-21T12:40:04;26.00;34.60
43009;DHT22;28634;45.454;11.106;2022-09-21T12:42:45;26.10;35.00
43009;DHT22;28634;45.454;11.106;2022-09-21T12:45:21;26.00;35.20
43009;DHT22;28634;45.454;11.106;2022-09-21T12:48:10;26.10;33.10
43009;DHT22;28634;45.454;11.106;2022-09-21T12:50:53;26.10;36.90
43009;DHT22;28634;45.454;11.106;2022-09-21T12:53:26;26.10;36.60
43009;DHT22;28634;45.454;11.106;2022-09-21T12:56:08;26.10;37.30
43009;DHT22;28634;45.454;11.106;2022-09-21T13:01:34;26.00;36.10
43009;DHT22;28634;45.454;11.106;2022-09-21T13:09:50;26.30;28.20
43009;DHT22;28634;45.454;11.106;2022-09-21T13:12:30;26.20;28.50
43009;DHT22;28634;45.454;11.106;2022-09-21T13:15:21;26.20;27.50
43009;DHT22;28634;45.454;11.106;2022-09-21T13:17:58;26.20;27.50
43009;DHT22;28634;45.454;11.106;2022-09-21T13:20:26;26.30;28.40
43009;DHT22;28634;45.454;11.106;2022-09-21T13:22:58;26.30;28.40
43009;DHT22;28634;45.454;11.106;2022-09-21T13:25:32;26.40;29.50
43009;DHT22;28634;45.454;11.106;2022-09-21T13:30:46;26.20;28.40
43009;DHT22;28634;45.454;11.106;2022-09-21T13:36:01;26.00;28.10
43009;DHT22;28634;45.454;11.106;2022-09-21T13:41:26;26.10;28.50
43009;DHT22;28634;45.454;11.106;2022-09-21T13:46:54;26.10;31.10
43009;DHT22;28634;45.454;11.106;2022-09-21T13:49:41;26.00;30.40
43009;DHT22;28634;45.454;11.106;2022-09-21T13:55:00;25.90;30.50
43009;DHT22;28634;45.454;11.106;2022-09-21T14:02:44;25.70;28.80
43009;DHT22;28634;45.454;11.106;2022-09-21T14:10:56;25.70;29.70
43009;DHT22;28634;45.454;11.106;2022-09-21T14:13:34;25.70;30.20
43009;DHT22;28634;45.454;11.106;2022-09-21T14:16:24;25.60;28.80
43009;DHT22;28634;45.454;11.106;2022-09-21T14:18:54;25.50;30.00
43009;DHT22;28634;45.454;11.106;2022-09-21T14:21:22;25.40;30.60
43009;DHT22;28634;45.454;11.106;2022-09-21T14:24:20;25.40;29.20
43009;DHT22;28634;45.454;11.106;2022-09-21T14:27:00;25.50;28.80
43009;DHT22;28634;45.454;11.106;2022-09-21T14:29:46;25.60;28.80
43009;DHT22;28634;45.454;11.106;2022-09-21T14:32:17;25.70;29.80
43009;DHT22;28634;45.454;11.106;2022-09-21T14:34:53;25.70;29.50
43009;DHT22;28634;45.454;11.106;2022-09-21T14:37:39;25.70;28.30
43009;DHT22;28634;45.454;11.106;2022-09-21T14:40:24;25.70;29.50
43009;DHT22;28634;45.454;11.106;2022-09-21T14:42:53;25.70;28.70
43009;DHT22;28634;45.454;11.106;2022-09-21T14:48:40;25.70;29.40
43009;DHT22;28634;45.454;11.106;2022-09-21T14:54:26;25.70;28.70
43009;DHT22;28634;45.454;11.106;2022-09-21T14:57:05;25.70;28.40
43009;DHT22;28634;45.454;11.106;2022-09-21T14:59:49;25.70;28.80
43009;DHT22;28634;45.454;11.106;2022-09-21T15:02:25;25.70;28.20
43009;DHT22;28634;45.454;11.106;2022-09-21T15:05:45;25.70;29.00
43009;DHT22;28634;45.454;11.106;2022-09-21T15:16:42;25.60;28.40
43009;DHT22;28634;45.454;11.106;2022-09-21T15:21:49;25.70;29.30
43009;DHT22;28634;45.454;11.106;2022-09-21T15:24:26;25.70;28.70
43009;DHT22;28634;45.454;11.106;2022-09-21T15:27:04;25.70;28.70
43009;DHT22;28634;45.454;11.106;2022-09-21T15:29:33;25.80;28.70
43009;DHT22;28634;45.454;11.106;2022-09-21T15:32:00;25.80;29.20
43009;DHT22;28634;45.454;11.106;2022-09-21T15:34:27;25.80;29.40
43009;DHT22;28634;45.454;11.106;2022-09-21T15:37:13;25.70;28.60
43009;DHT22;28634;45.454;11.106;2022-09-21T15:39:41;25.80;28.00
43009;DHT22;28634;45.454;11.106;2022-09-21T15:44:37;25.80;28.60
43009;DHT22;28634;45.454;11.106;2022-09-21T15:47:11;25.80;28.30
43009;DHT22;28634;45.454;11.106;2022-09-21T15:49:40;25.70;28.80
43009;DHT22;28634;45.454;11.106;2022-09-21T15:55:06;25.70;29.10
43009;DHT22;28634;45.454;11.106;2022-09-21T15:57:37;25.70;28.20
43009;DHT22;28634;45.454;11.106;2022-09-21T16:00:18;25.50;28.90
43009;DHT22;28634;45.454;11.106;2022-09-21T16:05:42;25.60;31.40
43009;DHT22;28634;45.454;11.106;2022-09-21T16:08:19;25.70;31.80
43009;DHT22;28634;45.454;11.106;2022-09-21T16:10:48;25.80;31.80
43009;DHT22;28634;45.454;11.106;2022-09-21T16:13:21;25.90;31.30
43009;DHT22;28634;45.454;11.106;2022-09-21T16:16:10;26.00;31.50
43009;DHT22;28634;45.454;11.106;2022-09-21T16:18:51;26.00;31.50
43009;DHT22;28634;45.454;11.106;2022-09-21T16:21:31;26.10;30.80
43009;DHT22;28634;45.454;11.106;2022-09-21T16:24:17;26.10;31.90
43009;DHT22;28634;45.454;11.106;2022-09-21T16:27:01;26.20;31.80
43009;DHT22;28634;45.454;11.106;2022-09-21T16:29:39;26.20;32.20
43009;DHT22;28634;45.454;11.106;2022-09-21T16:32:18;26.20;31.90
43009;DHT22;28634;45.454;11.106;2022-09-21T16:34:51;26.20;32.10
43009;DHT22;28634;45.454;11.106;2022-09-21T16:39:56;26.20;32.30
43009;DHT22;28634;45.454;11.106;2022-09-21T16:42:27;26.20;31.40
43009;DHT22;28634;45.454;11.106;2022-09-21T16:44:59;26.20;32.30
43009;DHT22;28634;45.454;11.106;2022-09-21T16:47:27;26.20;32.30
43009;DHT22;28634;45.454;11.106;2022-09-21T16:49:56;26.20;32.40
43009;DHT22;28634;45.454;11.106;2022-09-21T16:52:27;26.20;31.30
43009;DHT22;28634;45.454;11.106;2022-09-21T16:54:55;26.20;31.30
43009;DHT22;28634;45.454;11.106;2022-09-21T16:57:23;26.30;31.50
43009;DHT22;28634;45.454;11.106;2022-09-21T16:59:53;26.30;32.30
43009;DHT22;28634;45.454;11.106;2022-09-21T17:02:21;26.30;31.50
43009;DHT22;28634;45.454;11.106;2022-09-21T17:04:49;26.20;31.40
43009;DHT22;28634;45.454;11.106;2022-09-21T17:07:16;26.30;32.20
43009;DHT22;28634;45.454;11.106;2022-09-21T17:09:45;26.30;31.70
43009;DHT22;28634;45.454;11.106;2022-09-21T17:12:15;26.30;31.40
43009;DHT22;28634;45.454;11.106;2022-09-21T17:14:44;26.30;31.10
43009;DHT22;28634;45.454;11.106;2022-09-21T17:17:17;26.20;30.90
43009;DHT22;28634;45.454;11.106;2022-09-21T17:19:46;26.30;31.70
43009;DHT22;28634;45.454;11.106;2022-09-21T17:22:19;26.30;32.00
43009;DHT22;28634;45.454;11.106;2022-09-21T17:24:50;26.30;32.00
43009;DHT22;28634;45.454;11.106;2022-09-21T17:27:25;26.40;32.10
43009;DHT22;28634;45.454;11.106;2022-09-21T17:29:56;26.40;31.60
43009;DHT22;28634;45.454;11.106;2022-09-21T17:32:29;26.40;32.10
43009;DHT22;28634;45.454;11.106;2022-09-21T17:35:24;26.40;32.20
43009;DHT22;28634;45.454;11.106;2022-09-21T17:37:58;26.40;32.30
43009;DHT22;28634;45.454;11.106;2022-09-21T17:40:26;26.40;32.40
43009;DHT22;28634;45.454;11.106;2022-09-21T17:48:55;26.50;32.60
43009;DHT22;28634;45.454;11.106;2022-09-21T17:51:25;26.50;32.60
43009;DHT22;28634;45.454;11.106;2022-09-21T17:54:11;26.50;32.60
43009;DHT22;28634;45.454;11.106;2022-09-21T17:56:47;26.50;32.60
43009;DHT22;28634;45.454;11.106;2022-09-21T17:59:31;26.50;32.70
43009;DHT22;28634;45.454;11.106;2022-09-21T18:02:01;26.60;32.70
43009;DHT22;28634;45.454;11.106;2022-09-21T18:04:34;26.60;32.80
43009;DHT22;28634;45.454;11.106;2022-09-21T18:07:01;26.60;32.80
43009;DHT22;28634;45.454;11.106;2022-09-21T18:09:31;26.60;32.90
43009;DHT22;28634;45.454;11.106;2022-09-21T18:15:10;26.60;33.00
43009;DHT22;28634;45.454;11.106;2022-09-21T18:18:08;26.60;33.00
43009;DHT22;28634;45.454;11.106;2022-09-21T18:23:42;26.60;32.90
43009;DHT22;28634;45.454;11.106;2022-09-21T18:26:11;26.60;33.00
43009;DHT22;28634;45.454;11.106;2022-09-21T18:28:43;26.60;33.00
43009;DHT22;28634;45.454;11.106;2022-09-21T18:34:24;26.60;33.20
43009;DHT22;28634;45.454;11.106;2022-09-21T18:37:24;26.70;33.10
43009;DHT22;28634;45.454;11.106;2022-09-21T18:45:39;26.60;33.10
43009;DHT22;28634;45.454;11.106;2022-09-21T18:53:25;26.60;33.00
43009;DHT22;28634;45.454;11.106;2022-09-21T18:55:55;26.60;33.00
43009;DHT22;28634;45.454;11.106;2022-09-21T18:58:23;26.50;33.00
43009;DHT22;28634;45.454;11.106;2022-09-21T19:00:50;26.50;33.00
43009;DHT22;28634;45.454;11.106;2022-09-21T19:03:18;26.50;33.10
43009;DHT22;28634;45.454;11.106;2022-09-21T19:08:49;26.50;33.10
43009;DHT22;28634;45.454;11.106;2022-09-21T19:11:31;26.50;33.00
43009;DHT22;28634;45.454;11.106;2022-09-21T19:22:25;26.60;33.10
43009;DHT22;28634;45.454;11.106;2022-09-21T19:31:13;26.50;33.00
43009;DHT22;28634;45.454;11.106;2022-09-21T19:33:41;26.50;33.10
43009;DHT22;28634;45.454;11.106;2022-09-21T19:36:17;26.50;33.00
43009;DHT22;28634;45.454;11.106;2022-09-21T19:38:44;26.50;33.10
43009;DHT22;28634;45.454;11.106;2022-09-21T19:41:32;26.50;33.00
43009;DHT22;28634;45.454;11.106;2022-09-21T19:44:14;26.50;33.00
43009;DHT22;28634;45.454;11.106;2022-09-21T19:49:47;26.50;33.10
43009;DHT22;28634;45.454;11.106;2022-09-21T19:52:29;26.50;33.00
43009;DHT22;28634;45.454;11.106;2022-09-21T19:54:57;26.50;32.90
43009;DHT22;28634;45.454;11.106;2022-09-21T19:57:43;26.50;32.90
43009;DHT22;28634;45.454;11.106;2022-09-21T20:00:29;26.50;33.00
43009;DHT22;28634;45.454;11.106;2022-09-21T20:03:20;26.40;33.00
43009;DHT22;28634;45.454;11.106;2022-09-21T20:06:02;26.50;33.10
43009;DHT22;28634;45.454;11.106;2022-09-21T20:08:57;26.50;33.00
43009;DHT22;28634;45.454;11.106;2022-09-21T20:11:45;26.50;32.90
43009;DHT22;28634;45.454;11.106;2022-09-21T20:14:31;26.40;33.00
43009;DHT22;28634;45.454;11.106;2022-09-21T20:17:02;26.40;32.90
43009;DHT22;28634;45.454;11.106;2022-09-21T20:22:11;26.40;32.90
43009;DHT22;28634;45.454;11.106;2022-09-21T20:24:47;26.50;32.90
43009;DHT22;28634;45.454;11.106;2022-09-21T20:27:40;26.50;32.90
43009;DHT22;28634;45.454;11.106;2022-09-21T20:30:10;26.50;33.00
43009;DHT22;28634;45.454;11.106;2022-09-21T20:32:41;26.50;32.90
43009;DHT22;28634;45.454;11.106;2022-09-21T20:35:21;26.50;32.90
43009;DHT22;28634;45.454;11.106;2022-09-21T20:37:49;26.50;32.90
43009;DHT22;28634;45.454;11.106;2022-09-21T20:40:18;26.50;32.90
43009;DHT22;28634;45.454;11.106;2022-09-21T20:42:46;26.50;32.90
43009;DHT22;28634;45.454;11.106;2022-09-21T20:45:13;26.50;32.70
43009;DHT22;28634;45.454;11.106;2022-09-21T20:47:40;26.50;32.70
43009;DHT22;28634;45.454;11.106;2022-09-21T20:50:08;26.40;32.80
43009;DHT22;28634;45.454;11.106;2022-09-21T20:52:39;26.50;32.70
43009;DHT22;28634;45.454;11.106;2022-09-21T20:55:09;26.60;32.80
43009;DHT22;28634;45.454;11.106;2022-09-21T20:57:39;26.60;32.80
43009;DHT22;28634;45.454;11.106;2022-09-21T21:00:09;26.60;32.70
43009;DHT22;28634;45.454;11.106;2022-09-21T21:02:36;26.70;32.70
43009;DHT22;28634;45.454;11.106;2022-09-21T21:05:04;26.70;32.70
43009;DHT22;28634;45.454;11.106;2022-09-21T21:07:31;26.70;32.70
43009;DHT22;28634;45.454;11.106;2022-09-21T21:09:58;26.70;32.70
43009;DHT22;28634;45.454;11.106;2022-09-21T21:12:26;26.70;31.90
43009;DHT22;28634;45.454;11.106;2022-09-21T21:14:53;26.40;30.00
43009;DHT22;28634;45.454;11.106;2022-09-21T21:17:20;25.90;30.90
43009;DHT22;28634;45.454;11.106;2022-09-21T21:19:47;25.40;31.30
43009;DHT22;28634;45.454;11.106;2022-09-21T21:22:14;25.00;31.60
43009;DHT22;28634;45.454;11.106;2022-09-21T21:24:41;24.70;31.80
43009;DHT22;28634;45.454;11.106;2022-09-21T21:27:15;24.50;32.20
43009;DHT22;28634;45.454;11.106;2022-09-21T21:29:44;24.30;32.20
43009;DHT22;28634;45.454;11.106;2022-09-21T21:32:19;24.20;32.30
43009;DHT22;28634;45.454;11.106;2022-09-21T21:34:47;24.10;32.10
43009;DHT22;28634;45.454;11.106;2022-09-21T21:37:16;24.10;32.00
43009;DHT22;28634;45.454;11.106;2022-09-21T21:39:44;24.00;32.00
43009;DHT22;28634;45.454;11.106;2022-09-21T21:42:11;24.00;32.20
43009;DHT22;28634;45.454;11.106;2022-09-21T21:44:39;24.00;32.00
43009;DHT22;28634;45.454;11.106;2022-09-21T21:47:06;24.00;32.00
43009;DHT22;28634;45.454;11.106;2022-09-21T21:49:53;24.00;32.10
43009;DHT22;28634;45.454;11.106;2022-09-21T21:52:20;23.90;32.30
43009;DHT22;28634;45.454;11.106;2022-09-21T21:54:47;23.80;32.50
43009;DHT22;28634;45.454;11.106;2022-09-21T21:57:15;23.70;32.70
43009;DHT22;28634;45.454;11.106;2022-09-21T21:59:42;23.70;32.90
43009;DHT22;28634;45.454;11.106;2022-09-21T22:02:10;23.70;33.20
43009;DHT22;28634;45.454;11.106;2022-09-21T22:04:37;23.70;33.20
43009;DHT22;28634;45.454;11.106;2022-09-21T22:07:04;23.70;33.10
43009;DHT22;28634;45.454;11.106;2022-09-21T22:09:31;23.70;33.00
43009;DHT22;28634;45.454;11.106;2022-09-21T22:11:58;23.70;32.90
43009;DHT22;28634;45.454;11.106;2022-09-21T22:14:27;23.60;32.70
43009;DHT22;28634;45.454;11.106;2022-09-21T22:16:55;23.70;32.70
43009;DHT22;28634;45.454;11.106;2022-09-21T22:19:24;23.70;32.60
43009;DHT22;28634;45.454;11.106;2022-09-21T22:21:54;23.70;32.90
43009;DHT22;28634;45.454;11.106;2022-09-21T22:24:21;23.70;32.70